Terminal Aerodrome Forecast
Issued by NWS

Current Version | Previous Version | Text Only | Print | Product List | Glossary Off
Versions: 1 2 3 4 5 6 7 8 9 10 11 12 13 14 15 16 17 18

000
FTUS41 KILN 281700
TAFLCK
TAF
KLCK 281730Z 2818/2918 VRB03KT P6SM FEW050 SCT250
     FM290700 VRB03KT 3SM BR SCT250
     FM291300 33006KT P6SM SCT045=

USA.gov is the U.S. government's official web portal to all federal, state and local government web resources and services.